sensor_id;sensor_type;location;lat;lon;timestamp;P1;durP1;ratioP1;P2;durP2;ratioP2
21539;SDS011;10931;52.164;5.518;2022-10-19T00:01:22;2.20;;;1.15;;
21539;SDS011;10931;52.164;5.518;2022-10-19T00:03:57;1.55;;;1.10;;
21539;SDS011;10931;52.164;5.518;2022-10-19T00:06:26;1.35;;;0.98;;
21539;SDS011;10931;52.164;5.518;2022-10-19T00:11:48;1.23;;;0.82;;
21539;SDS011;10931;52.164;5.518;2022-10-19T00:14:27;1.63;;;1.10;;
21539;SDS011;10931;52.164;5.518;2022-10-19T00:17:11;1.50;;;1.20;;
21539;SDS011;10931;52.164;5.518;2022-10-19T00:19:57;1.80;;;1.05;;
21539;SDS011;10931;52.164;5.518;2022-10-19T00:22:32;2.50;;;1.17;;
21539;SDS011;10931;52.164;5.518;2022-10-19T00:27:43;1.30;;;1.10;;
21539;SDS011;10931;52.164;5.518;2022-10-19T00:30:38;1.33;;;1.10;;
21539;SDS011;10931;52.164;5.518;2022-10-19T00:33:11;1.38;;;1.02;;
21539;SDS011;10931;52.164;5.518;2022-10-19T00:35:43;1.80;;;1.15;;
21539;SDS011;10931;52.164;5.518;2022-10-19T00:38:15;1.15;;;0.88;;
21539;SDS011;10931;52.164;5.518;2022-10-19T00:40:51;2.08;;;1.20;;
21539;SDS011;10931;52.164;5.518;2022-10-19T00:43:30;0.98;;;0.80;;
21539;SDS011;10931;52.164;5.518;2022-10-19T00:46:04;1.88;;;1.08;;
21539;SDS011;10931;52.164;5.518;2022-10-19T00:48:37;4.53;;;1.13;;
21539;SDS011;10931;52.164;5.518;2022-10-19T00:51:07;1.98;;;1.25;;
21539;SDS011;10931;52.164;5.518;2022-10-19T00:53:40;1.10;;;1.00;;
21539;SDS011;10931;52.164;5.518;2022-10-19T00:57:00;1.48;;;1.10;;
21539;SDS011;10931;52.164;5.518;2022-10-19T00:59:35;1.15;;;0.95;;
21539;SDS011;10931;52.164;5.518;2022-10-19T01:02:05;2.60;;;1.05;;
21539;SDS011;10931;52.164;5.518;2022-10-19T01:04:41;2.08;;;1.00;;
21539;SDS011;10931;52.164;5.518;2022-10-19T01:07:23;2.83;;;1.00;;
21539;SDS011;10931;52.164;5.518;2022-10-19T01:12:50;2.13;;;1.10;;
21539;SDS011;10931;52.164;5.518;2022-10-19T01:18:31;1.15;;;0.90;;
21539;SDS011;10931;52.164;5.518;2022-10-19T01:21:43;1.90;;;1.00;;
21539;SDS011;10931;52.164;5.518;2022-10-19T01:24:54;1.77;;;1.20;;
21539;SDS011;10931;52.164;5.518;2022-10-19T01:30:16;0.75;;;0.65;;
21539;SDS011;10931;52.164;5.518;2022-10-19T01:33:26;1.65;;;1.00;;
21539;SDS011;10931;52.164;5.518;2022-10-19T01:36:22;1.40;;;0.80;;
21539;SDS011;10931;52.164;5.518;2022-10-19T01:39:37;1.98;;;0.90;;
21539;SDS011;10931;52.164;5.518;2022-10-19T01:42:25;1.30;;;0.85;;
21539;SDS011;10931;52.164;5.518;2022-10-19T01:51:47;1.75;;;0.80;;
21539;SDS011;10931;52.164;5.518;2022-10-19T01:54:16;1.25;;;0.90;;
21539;SDS011;10931;52.164;5.518;2022-10-19T01:56:43;1.30;;;0.90;;
21539;SDS011;10931;52.164;5.518;2022-10-19T01:59:14;2.22;;;0.80;;
21539;SDS011;10931;52.164;5.518;2022-10-19T02:01:45;1.48;;;0.90;;
21539;SDS011;10931;52.164;5.518;2022-10-19T02:04:14;1.77;;;1.00;;
21539;SDS011;10931;52.164;5.518;2022-10-19T02:06:52;1.25;;;0.90;;
21539;SDS011;10931;52.164;5.518;2022-10-19T02:09:27;1.67;;;0.90;;
21539;SDS011;10931;52.164;5.518;2022-10-19T02:11:53;1.13;;;0.73;;
21539;SDS011;10931;52.164;5.518;2022-10-19T02:14:31;1.33;;;0.80;;
21539;SDS011;10931;52.164;5.518;2022-10-19T02:17:04;2.25;;;0.90;;
21539;SDS011;10931;52.164;5.518;2022-10-19T02:19:33;0.82;;;0.80;;
21539;SDS011;10931;52.164;5.518;2022-10-19T02:22:04;1.42;;;0.90;;
21539;SDS011;10931;52.164;5.518;2022-10-19T02:24:43;1.75;;;1.00;;
21539;SDS011;10931;52.164;5.518;2022-10-19T02:27:10;1.30;;;0.90;;
21539;SDS011;10931;52.164;5.518;2022-10-19T02:29:39;1.38;;;1.00;;
21539;SDS011;10931;52.164;5.518;2022-10-19T02:32:08;1.25;;;0.90;;
21539;SDS011;10931;52.164;5.518;2022-10-19T02:34:38;1.10;;;0.80;;
21539;SDS011;10931;52.164;5.518;2022-10-19T02:37:13;1.10;;;0.70;;
21539;SDS011;10931;52.164;5.518;2022-10-19T02:39:45;1.80;;;0.80;;
21539;SDS011;10931;52.164;5.518;2022-10-19T02:45:30;2.67;;;0.98;;
21539;SDS011;10931;52.164;5.518;2022-10-19T02:48:20;1.73;;;0.73;;
21539;SDS011;10931;52.164;5.518;2022-10-19T02:51:34;0.98;;;0.88;;
21539;SDS011;10931;52.164;5.518;2022-10-19T02:54:12;1.67;;;0.88;;
21539;SDS011;10931;52.164;5.518;2022-10-19T02:56:38;1.83;;;1.10;;
21539;SDS011;10931;52.164;5.518;2022-10-19T02:59:15;1.40;;;0.90;;
21539;SDS011;10931;52.164;5.518;2022-10-19T03:01:55;1.55;;;0.85;;
21539;SDS011;10931;52.164;5.518;2022-10-19T03:09:46;1.73;;;0.90;;
21539;SDS011;10931;52.164;5.518;2022-10-19T03:12:12;1.52;;;0.77;;
21539;SDS011;10931;52.164;5.518;2022-10-19T03:14:45;1.23;;;0.80;;
21539;SDS011;10931;52.164;5.518;2022-10-19T03:17:37;1.20;;;0.70;;
21539;SDS011;10931;52.164;5.518;2022-10-19T03:20:08;1.30;;;0.82;;
21539;SDS011;10931;52.164;5.518;2022-10-19T03:22:39;1.42;;;0.82;;
21539;SDS011;10931;52.164;5.518;2022-10-19T03:25:07;2.38;;;0.90;;
21539;SDS011;10931;52.164;5.518;2022-10-19T03:27:38;1.38;;;0.70;;
21539;SDS011;10931;52.164;5.518;2022-10-19T03:30:06;2.00;;;1.02;;
21539;SDS011;10931;52.164;5.518;2022-10-19T03:32:34;1.48;;;0.90;;
21539;SDS011;10931;52.164;5.518;2022-10-19T03:35:05;2.20;;;0.98;;
21539;SDS011;10931;52.164;5.518;2022-10-19T03:37:31;1.23;;;0.90;;
21539;SDS011;10931;52.164;5.518;2022-10-19T03:39:57;1.20;;;0.80;;
21539;SDS011;10931;52.164;5.518;2022-10-19T03:42:23;1.13;;;0.70;;
21539;SDS011;10931;52.164;5.518;2022-10-19T03:44:51;1.80;;;0.90;;
21539;SDS011;10931;52.164;5.518;2022-10-19T03:47:18;1.17;;;0.85;;
21539;SDS011;10931;52.164;5.518;2022-10-19T03:49:43;1.27;;;0.80;;
21539;SDS011;10931;52.164;5.518;2022-10-19T03:54:57;1.15;;;0.85;;
21539;SDS011;10931;52.164;5.518;2022-10-19T03:57:23;1.25;;;0.88;;
21539;SDS011;10931;52.164;5.518;2022-10-19T03:59:51;2.45;;;0.98;;
21539;SDS011;10931;52.164;5.518;2022-10-19T04:05:04;2.20;;;1.10;;
21539;SDS011;10931;52.164;5.518;2022-10-19T04:07:31;0.80;;;0.70;;
21539;SDS011;10931;52.164;5.518;2022-10-19T04:10:03;1.33;;;0.90;;
21539;SDS011;10931;52.164;5.518;2022-10-19T04:12:29;2.22;;;0.90;;
21539;SDS011;10931;52.164;5.518;2022-10-19T04:15:00;2.42;;;1.05;;
21539;SDS011;10931;52.164;5.518;2022-10-19T04:17:33;1.60;;;0.85;;
21539;SDS011;10931;52.164;5.518;2022-10-19T04:20:30;1.20;;;0.75;;
21539;SDS011;10931;52.164;5.518;2022-10-19T04:22:58;1.67;;;0.80;;
21539;SDS011;10931;52.164;5.518;2022-10-19T04:25:34;2.13;;;0.98;;
21539;SDS011;10931;52.164;5.518;2022-10-19T04:28:03;2.10;;;0.98;;
21539;SDS011;10931;52.164;5.518;2022-10-19T04:30:29;4.50;;;1.35;;
21539;SDS011;10931;52.164;5.518;2022-10-19T04:33:04;2.28;;;1.42;;
21539;SDS011;10931;52.164;5.518;2022-10-19T04:35:39;1.88;;;0.85;;
21539;SDS011;10931;52.164;5.518;2022-10-19T04:38:12;1.92;;;1.10;;
21539;SDS011;10931;52.164;5.518;2022-10-19T04:40:46;1.73;;;0.80;;
21539;SDS011;10931;52.164;5.518;2022-10-19T04:43:13;3.78;;;0.82;;
21539;SDS011;10931;52.164;5.518;2022-10-19T04:45:49;1.85;;;0.88;;
21539;SDS011;10931;52.164;5.518;2022-10-19T04:48:30;1.17;;;0.80;;
21539;SDS011;10931;52.164;5.518;2022-10-19T04:50:57;1.50;;;0.75;;
21539;SDS011;10931;52.164;5.518;2022-10-19T04:53:49;2.83;;;1.10;;
21539;SDS011;10931;52.164;5.518;2022-10-19T04:56:18;2.88;;;0.93;;
21539;SDS011;10931;52.164;5.518;2022-10-19T05:01:42;1.70;;;0.85;;
21539;SDS011;10931;52.164;5.518;2022-10-19T05:19:50;2.25;;;0.80;;
21539;SDS011;10931;52.164;5.518;2022-10-19T05:22:46;1.58;;;0.70;;
21539;SDS011;10931;52.164;5.518;2022-10-19T05:25:57;1.02;;;0.80;;
21539;SDS011;10931;52.164;5.518;2022-10-19T05:28:33;1.63;;;0.80;;
21539;SDS011;10931;52.164;5.518;2022-10-19T05:31:23;1.65;;;0.95;;
21539;SDS011;10931;52.164;5.518;2022-10-19T05:34:29;2.15;;;0.90;;
21539;SDS011;10931;52.164;5.518;2022-10-19T05:37:32;3.20;;;0.75;;
21539;SDS011;10931;52.164;5.518;2022-10-19T05:40:05;2.70;;;0.90;;
21539;SDS011;10931;52.164;5.518;2022-10-19T05:42:36;2.35;;;1.17;;
21539;SDS011;10931;52.164;5.518;2022-10-19T05:45:32;1.63;;;0.90;;
21539;SDS011;10931;52.164;5.518;2022-10-19T05:48:07;3.65;;;2.00;;
21539;SDS011;10931;52.164;5.518;2022-10-19T05:50:56;3.80;;;2.47;;
21539;SDS011;10931;52.164;5.518;2022-10-19T05:53:31;5.35;;;2.28;;
21539;SDS011;10931;52.164;5.518;2022-10-19T05:56:03;7.30;;;2.53;;
21539;SDS011;10931;52.164;5.518;2022-10-19T05:58:43;4.80;;;2.45;;
21539;SDS011;10931;52.164;5.518;2022-10-19T06:01:17;4.10;;;2.60;;
21539;SDS011;10931;52.164;5.518;2022-10-19T06:04:09;5.15;;;2.60;;
21539;SDS011;10931;52.164;5.518;2022-10-19T06:06:35;3.72;;;2.10;;
21539;SDS011;10931;52.164;5.518;2022-10-19T06:11:43;3.08;;;2.00;;
21539;SDS011;10931;52.164;5.518;2022-10-19T06:14:17;4.55;;;2.25;;
21539;SDS011;10931;52.164;5.518;2022-10-19T06:16:49;3.15;;;1.80;;
21539;SDS011;10931;52.164;5.518;2022-10-19T06:22:20;3.95;;;2.22;;
21539;SDS011;10931;52.164;5.518;2022-10-19T06:27:40;4.63;;;1.70;;
21539;SDS011;10931;52.164;5.518;2022-10-19T06:30:08;3.33;;;1.90;;
21539;SDS011;10931;52.164;5.518;2022-10-19T06:32:37;3.45;;;1.70;;
21539;SDS011;10931;52.164;5.518;2022-10-19T06:37:34;3.22;;;1.50;;
21539;SDS011;10931;52.164;5.518;2022-10-19T06:40:00;2.58;;;1.73;;
21539;SDS011;10931;52.164;5.518;2022-10-19T06:42:26;3.75;;;1.50;;
21539;SDS011;10931;52.164;5.518;2022-10-19T06:48:10;2.30;;;1.48;;
21539;SDS011;10931;52.164;5.518;2022-10-19T06:50:46;2.45;;;1.42;;
21539;SDS011;10931;52.164;5.518;2022-10-19T06:53:28;2.10;;;1.25;;
21539;SDS011;10931;52.164;5.518;2022-10-19T06:56:02;1.83;;;1.30;;
21539;SDS011;10931;52.164;5.518;2022-10-19T06:58:38;2.72;;;1.55;;
21539;SDS011;10931;52.164;5.518;2022-10-19T07:01:12;1.73;;;1.10;;
21539;SDS011;10931;52.164;5.518;2022-10-19T07:03:47;1.65;;;1.13;;
21539;SDS011;10931;52.164;5.518;2022-10-19T07:09:43;1.83;;;1.08;;
21539;SDS011;10931;52.164;5.518;2022-10-19T07:12:20;2.80;;;1.27;;
21539;SDS011;10931;52.164;5.518;2022-10-19T07:14:46;2.58;;;1.42;;
21539;SDS011;10931;52.164;5.518;2022-10-19T07:17:30;3.05;;;1.25;;
21539;SDS011;10931;52.164;5.518;2022-10-19T07:23:15;1.95;;;1.10;;
21539;SDS011;10931;52.164;5.518;2022-10-19T07:35:25;1.48;;;0.90;;
21539;SDS011;10931;52.164;5.518;2022-10-19T07:38:03;4.88;;;1.17;;
21539;SDS011;10931;52.164;5.518;2022-10-19T07:43:25;3.92;;;1.13;;
21539;SDS011;10931;52.164;5.518;2022-10-19T07:46:26;2.85;;;1.10;;
21539;SDS011;10931;52.164;5.518;2022-10-19T07:49:11;1.42;;;0.90;;
21539;SDS011;10931;52.164;5.518;2022-10-19T07:55:13;1.40;;;0.90;;
21539;SDS011;10931;52.164;5.518;2022-10-19T08:01:01;4.85;;;1.17;;
21539;SDS011;10931;52.164;5.518;2022-10-19T08:07:33;2.10;;;1.15;;
21539;SDS011;10931;52.164;5.518;2022-10-19T08:16:42;2.00;;;1.00;;
21539;SDS011;10931;52.164;5.518;2022-10-19T08:19:12;1.92;;;0.98;;
21539;SDS011;10931;52.164;5.518;2022-10-19T08:25:10;3.25;;;1.10;;
21539;SDS011;10931;52.164;5.518;2022-10-19T08:27:43;2.30;;;1.10;;
21539;SDS011;10931;52.164;5.518;2022-10-19T08:30:10;2.20;;;1.10;;
21539;SDS011;10931;52.164;5.518;2022-10-19T08:32:45;1.45;;;0.73;;
21539;SDS011;10931;52.164;5.518;2022-10-19T08:35:11;3.25;;;0.80;;
21539;SDS011;10931;52.164;5.518;2022-10-19T08:37:39;2.28;;;0.98;;
21539;SDS011;10931;52.164;5.518;2022-10-19T08:40:25;3.35;;;0.90;;
21539;SDS011;10931;52.164;5.518;2022-10-19T08:43:28;1.95;;;1.17;;
21539;SDS011;10931;52.164;5.518;2022-10-19T08:49:00;2.90;;;1.05;;
21539;SDS011;10931;52.164;5.518;2022-10-19T09:00:17;2.45;;;0.98;;
21539;SDS011;10931;52.164;5.518;2022-10-19T09:03:23;1.17;;;0.70;;
21539;SDS011;10931;52.164;5.518;2022-10-19T09:08:31;1.20;;;0.68;;
21539;SDS011;10931;52.164;5.518;2022-10-19T09:11:00;2.05;;;0.60;;
21539;SDS011;10931;52.164;5.518;2022-10-19T09:13:46;1.73;;;1.00;;
21539;SDS011;10931;52.164;5.518;2022-10-19T09:16:44;2.20;;;0.82;;
21539;SDS011;10931;52.164;5.518;2022-10-19T09:19:51;3.05;;;0.82;;
21539;SDS011;10931;52.164;5.518;2022-10-19T09:32:42;2.95;;;0.85;;
21539;SDS011;10931;52.164;5.518;2022-10-19T09:38:50;3.33;;;1.05;;
21539;SDS011;10931;52.164;5.518;2022-10-19T09:48:54;1.88;;;0.80;;
21539;SDS011;10931;52.164;5.518;2022-10-19T09:51:25;2.25;;;0.77;;
21539;SDS011;10931;52.164;5.518;2022-10-19T09:57:42;1.73;;;0.60;;
21539;SDS011;10931;52.164;5.518;2022-10-19T10:01:08;1.27;;;0.57;;
21539;SDS011;10931;52.164;5.518;2022-10-19T10:04:20;2.50;;;0.82;;
21539;SDS011;10931;52.164;5.518;2022-10-19T10:12:58;2.17;;;0.50;;
21539;SDS011;10931;52.164;5.518;2022-10-19T10:22:37;1.33;;;0.60;;
21539;SDS011;10931;52.164;5.518;2022-10-19T10:25:54;2.85;;;0.73;;
21539;SDS011;10931;52.164;5.518;2022-10-19T10:28:48;1.08;;;0.50;;
21539;SDS011;10931;52.164;5.518;2022-10-19T10:31:19;3.25;;;0.65;;
21539;SDS011;10931;52.164;5.518;2022-10-19T10:33:53;2.05;;;0.50;;
21539;SDS011;10931;52.164;5.518;2022-10-19T10:36:26;3.25;;;0.70;;
21539;SDS011;10931;52.164;5.518;2022-10-19T10:39:16;3.22;;;0.88;;
21539;SDS011;10931;52.164;5.518;2022-10-19T10:41:42;0.80;;;0.45;;
21539;SDS011;10931;52.164;5.518;2022-10-19T10:44:21;1.17;;;0.40;;
21539;SDS011;10931;52.164;5.518;2022-10-19T10:53:00;3.15;;;0.65;;
21539;SDS011;10931;52.164;5.518;2022-10-19T10:55:53;1.48;;;0.40;;
21539;SDS011;10931;52.164;5.518;2022-10-19T10:58:41;1.80;;;0.45;;
21539;SDS011;10931;52.164;5.518;2022-10-19T11:01:34;1.40;;;0.47;;
21539;SDS011;10931;52.164;5.518;2022-10-19T11:04:15;2.20;;;0.50;;
21539;SDS011;10931;52.164;5.518;2022-10-19T11:06:54;2.17;;;0.50;;
21539;SDS011;10931;52.164;5.518;2022-10-19T11:09:35;3.55;;;0.60;;
21539;SDS011;10931;52.164;5.518;2022-10-19T11:18:10;1.55;;;0.50;;
21539;SDS011;10931;52.164;5.518;2022-10-19T11:31:15;1.33;;;0.32;;
21539;SDS011;10931;52.164;5.518;2022-10-19T11:54:13;2.10;;;0.47;;
21539;SDS011;10931;52.164;5.518;2022-10-19T12:11:50;1.48;;;0.50;;
21539;SDS011;10931;52.164;5.518;2022-10-19T12:14:33;2.20;;;0.50;;
21539;SDS011;10931;52.164;5.518;2022-10-19T12:17:14;1.75;;;0.40;;
21539;SDS011;10931;52.164;5.518;2022-10-19T12:19:47;0.20;;;0.20;;
21539;SDS011;10931;52.164;5.518;2022-10-19T12:22:24;1.17;;;0.45;;
21539;SDS011;10931;52.164;5.518;2022-10-19T12:24:56;1.30;;;0.32;;
21539;SDS011;10931;52.164;5.518;2022-10-19T12:27:39;2.42;;;0.77;;
21539;SDS011;10931;52.164;5.518;2022-10-19T12:30:17;1.95;;;0.50;;
21539;SDS011;10931;52.164;5.518;2022-10-19T12:51:07;1.17;;;0.50;;
21539;SDS011;10931;52.164;5.518;2022-10-19T13:01:17;2.58;;;0.57;;
21539;SDS011;10931;52.164;5.518;2022-10-19T13:04:04;1.63;;;0.40;;
21539;SDS011;10931;52.164;5.518;2022-10-19T13:09:49;2.25;;;0.68;;
21539;SDS011;10931;52.164;5.518;2022-10-19T13:12:42;1.02;;;0.35;;
21539;SDS011;10931;52.164;5.518;2022-10-19T13:31:32;2.28;;;0.50;;
21539;SDS011;10931;52.164;5.518;2022-10-19T13:37:47;0.38;;;0.20;;
21539;SDS011;10931;52.164;5.518;2022-10-19T13:44:37;0.95;;;0.30;;
21539;SDS011;10931;52.164;5.518;2022-10-19T13:50:53;0.45;;;0.30;;
21539;SDS011;10931;52.164;5.518;2022-10-19T13:57:21;1.58;;;0.40;;
21539;SDS011;10931;52.164;5.518;2022-10-19T13:59:55;1.65;;;0.45;;
21539;SDS011;10931;52.164;5.518;2022-10-19T15:15:34;0.75;;;0.30;;
21539;SDS011;10931;52.164;5.518;2022-10-19T15:18:31;0.70;;;0.50;;
21539;SDS011;10931;52.164;5.518;2022-10-19T15:21:24;2.95;;;0.40;;
21539;SDS011;10931;52.164;5.518;2022-10-19T15:23:51;1.05;;;0.30;;
21539;SDS011;10931;52.164;5.518;2022-10-19T15:28:50;1.85;;;0.60;;
21539;SDS011;10931;52.164;5.518;2022-10-19T15:53:36;1.95;;;0.82;;
21539;SDS011;10931;52.164;5.518;2022-10-19T16:11:08;3.20;;;0.47;;
21539;SDS011;10931;52.164;5.518;2022-10-19T16:13:54;1.05;;;0.43;;
21539;SDS011;10931;52.164;5.518;2022-10-19T16:17:14;1.50;;;0.40;;
21539;SDS011;10931;52.164;5.518;2022-10-19T16:23:41;1.33;;;0.50;;
21539;SDS011;10931;52.164;5.518;2022-10-19T16:26:42;1.13;;;0.30;;
21539;SDS011;10931;52.164;5.518;2022-10-19T16:31:58;1.65;;;0.43;;
21539;SDS011;10931;52.164;5.518;2022-10-19T16:50:02;1.40;;;0.45;;
21539;SDS011;10931;52.164;5.518;2022-10-19T16:53:09;2.13;;;0.70;;
21539;SDS011;10931;52.164;5.518;2022-10-19T16:56:06;1.23;;;0.43;;
21539;SDS011;10931;52.164;5.518;2022-10-19T17:04:32;2.10;;;0.65;;
21539;SDS011;10931;52.164;5.518;2022-10-19T17:24:02;1.63;;;0.75;;
21539;SDS011;10931;52.164;5.518;2022-10-19T17:26:34;0.95;;;0.40;;
21539;SDS011;10931;52.164;5.518;2022-10-19T17:29:10;1.58;;;0.52;;
21539;SDS011;10931;52.164;5.518;2022-10-19T17:31:50;1.60;;;0.55;;
21539;SDS011;10931;52.164;5.518;2022-10-19T17:34:26;1.33;;;0.70;;
21539;SDS011;10931;52.164;5.518;2022-10-19T17:36:54;2.90;;;0.80;;
21539;SDS011;10931;52.164;5.518;2022-10-19T17:39:21;2.33;;;0.90;;
21539;SDS011;10931;52.164;5.518;2022-10-19T17:41:59;1.90;;;0.80;;
21539;SDS011;10931;52.164;5.518;2022-10-19T17:44:37;1.90;;;0.63;;
21539;SDS011;10931;52.164;5.518;2022-10-19T17:47:08;2.45;;;0.70;;
21539;SDS011;10931;52.164;5.518;2022-10-19T17:49:35;0.88;;;0.55;;
21539;SDS011;10931;52.164;5.518;2022-10-19T17:52:10;1.20;;;0.63;;
21539;SDS011;10931;52.164;5.518;2022-10-19T17:54:46;0.60;;;0.50;;
21539;SDS011;10931;52.164;5.518;2022-10-19T17:57:40;1.05;;;0.77;;
21539;SDS011;10931;52.164;5.518;2022-10-19T18:03:14;1.75;;;0.90;;
21539;SDS011;10931;52.164;5.518;2022-10-19T18:06:03;2.05;;;0.82;;
21539;SDS011;10931;52.164;5.518;2022-10-19T18:08:41;1.33;;;0.65;;
21539;SDS011;10931;52.164;5.518;2022-10-19T18:11:13;1.33;;;0.77;;
21539;SDS011;10931;52.164;5.518;2022-10-19T18:16:54;1.73;;;0.70;;
21539;SDS011;10931;52.164;5.518;2022-10-19T18:22:48;1.48;;;0.70;;
21539;SDS011;10931;52.164;5.518;2022-10-19T18:25:43;1.08;;;0.77;;
21539;SDS011;10931;52.164;5.518;2022-10-19T18:30:55;1.33;;;0.70;;
21539;SDS011;10931;52.164;5.518;2022-10-19T18:33:35;1.75;;;0.73;;
21539;SDS011;10931;52.164;5.518;2022-10-19T18:36:13;1.25;;;0.73;;
21539;SDS011;10931;52.164;5.518;2022-10-19T18:38:43;2.20;;;0.70;;
21539;SDS011;10931;52.164;5.518;2022-10-19T18:41:27;2.47;;;0.65;;
21539;SDS011;10931;52.164;5.518;2022-10-19T18:43:54;1.83;;;0.88;;
21539;SDS011;10931;52.164;5.518;2022-10-19T18:46:33;1.45;;;0.82;;
21539;SDS011;10931;52.164;5.518;2022-10-19T18:49:02;0.65;;;0.63;;
21539;SDS011;10931;52.164;5.518;2022-10-19T18:51:37;2.05;;;0.60;;
21539;SDS011;10931;52.164;5.518;2022-10-19T18:54:03;0.95;;;0.65;;
21539;SDS011;10931;52.164;5.518;2022-10-19T18:56:29;2.65;;;0.80;;
21539;SDS011;10931;52.164;5.518;2022-10-19T18:58:57;2.28;;;0.82;;
21539;SDS011;10931;52.164;5.518;2022-10-19T19:04:18;1.83;;;0.80;;
21539;SDS011;10931;52.164;5.518;2022-10-19T19:06:44;1.58;;;0.88;;
21539;SDS011;10931;52.164;5.518;2022-10-19T19:24:52;1.13;;;0.80;;
21539;SDS011;10931;52.164;5.518;2022-10-19T19:27:48;1.80;;;0.70;;
21539;SDS011;10931;52.164;5.518;2022-10-19T19:33:46;2.80;;;0.77;;
21539;SDS011;10931;52.164;5.518;2022-10-19T19:36:41;0.90;;;0.60;;
21539;SDS011;10931;52.164;5.518;2022-10-19T19:39:13;1.98;;;0.80;;
21539;SDS011;10931;52.164;5.518;2022-10-19T19:41:42;1.67;;;0.70;;
21539;SDS011;10931;52.164;5.518;2022-10-19T19:44:12;1.95;;;1.05;;
21539;SDS011;10931;52.164;5.518;2022-10-19T19:46:45;2.30;;;1.20;;
21539;SDS011;10931;52.164;5.518;2022-10-19T19:52:47;1.90;;;0.70;;
21539;SDS011;10931;52.164;5.518;2022-10-19T19:55:27;0.90;;;0.50;;
21539;SDS011;10931;52.164;5.518;2022-10-19T19:58:02;2.55;;;0.98;;
21539;SDS011;10931;52.164;5.518;2022-10-19T20:00:52;2.20;;;0.90;;
21539;SDS011;10931;52.164;5.518;2022-10-19T20:03:20;2.50;;;0.75;;
21539;SDS011;10931;52.164;5.518;2022-10-19T20:12:31;2.03;;;0.80;;
21539;SDS011;10931;52.164;5.518;2022-10-19T20:15:08;2.08;;;0.60;;
21539;SDS011;10931;52.164;5.518;2022-10-19T20:21:31;1.55;;;0.80;;
21539;SDS011;10931;52.164;5.518;2022-10-19T20:54:53;1.30;;;0.95;;
21539;SDS011;10931;52.164;5.518;2022-10-19T21:04:26;2.50;;;1.15;;
21539;SDS011;10931;52.164;5.518;2022-10-19T21:07:10;1.95;;;0.77;;
21539;SDS011;10931;52.164;5.518;2022-10-19T21:19:41;2.78;;;0.80;;
21539;SDS011;10931;52.164;5.518;2022-10-19T21:25:03;2.83;;;0.82;;
21539;SDS011;10931;52.164;5.518;2022-10-19T21:38:01;1.10;;;0.60;;
21539;SDS011;10931;52.164;5.518;2022-10-19T21:48:02;2.78;;;0.80;;
21539;SDS011;10931;52.164;5.518;2022-10-19T22:04:32;1.02;;;0.60;;
21539;SDS011;10931;52.164;5.518;2022-10-19T22:07:14;1.38;;;0.75;;
21539;SDS011;10931;52.164;5.518;2022-10-19T22:09:44;1.63;;;0.90;;
21539;SDS011;10931;52.164;5.518;2022-10-19T22:12:40;2.17;;;0.63;;
21539;SDS011;10931;52.164;5.518;2022-10-19T22:15:05;1.67;;;0.60;;
21539;SDS011;10931;52.164;5.518;2022-10-19T22:17:58;1.92;;;0.73;;
21539;SDS011;10931;52.164;5.518;2022-10-19T22:20:37;2.42;;;1.05;;
21539;SDS011;10931;52.164;5.518;2022-10-19T22:23:05;1.58;;;0.70;;
21539;SDS011;10931;52.164;5.518;2022-10-19T22:25:37;1.70;;;0.77;;
21539;SDS011;10931;52.164;5.518;2022-10-19T22:28:11;2.40;;;0.80;;
21539;SDS011;10931;52.164;5.518;2022-10-19T22:31:08;1.10;;;0.77;;
21539;SDS011;10931;52.164;5.518;2022-10-19T22:33:30;1.27;;;0.90;;
21539;SDS011;10931;52.164;5.518;2022-10-19T22:36:02;1.63;;;0.73;;
21539;SDS011;10931;52.164;5.518;2022-10-19T22:38:43;1.02;;;0.68;;
21539;SDS011;10931;52.164;5.518;2022-10-19T22:44:32;1.55;;;0.77;;
21539;SDS011;10931;52.164;5.518;2022-10-19T22:49:31;2.25;;;0.93;;
21539;SDS011;10931;52.164;5.518;2022-10-19T22:52:01;0.98;;;0.70;;
21539;SDS011;10931;52.164;5.518;2022-10-19T22:54:30;2.15;;;0.80;;
21539;SDS011;10931;52.164;5.518;2022-10-19T22:57:02;1.23;;;0.70;;
21539;SDS011;10931;52.164;5.518;2022-10-19T22:59:57;1.13;;;0.80;;
21539;SDS011;10931;52.164;5.518;2022-10-19T23:02:23;3.80;;;0.90;;
21539;SDS011;10931;52.164;5.518;2022-10-19T23:05:01;2.05;;;0.80;;
21539;SDS011;10931;52.164;5.518;2022-10-19T23:07:27;1.00;;;0.70;;
21539;SDS011;10931;52.164;5.518;2022-10-19T23:09:57;1.38;;;0.90;;
21539;SDS011;10931;52.164;5.518;2022-10-19T23:12:23;2.10;;;0.90;;
21539;SDS011;10931;52.164;5.518;2022-10-19T23:14:48;0.73;;;0.70;;
21539;SDS011;10931;52.164;5.518;2022-10-19T23:17:17;1.17;;;0.90;;
21539;SDS011;10931;52.164;5.518;2022-10-19T23:19:49;0.93;;;0.60;;
21539;SDS011;10931;52.164;5.518;2022-10-19T23:22:28;1.00;;;0.80;;
21539;SDS011;10931;52.164;5.518;2022-10-19T23:25:08;2.28;;;0.77;;
21539;SDS011;10931;52.164;5.518;2022-10-19T23:27:34;1.85;;;0.80;;
21539;SDS011;10931;52.164;5.518;2022-10-19T23:30:05;1.42;;;0.90;;
21539;SDS011;10931;52.164;5.518;2022-10-19T23:32:33;1.63;;;0.90;;
21539;SDS011;10931;52.164;5.518;2022-10-19T23:34:59;1.75;;;0.75;;
21539;SDS011;10931;52.164;5.518;2022-10-19T23:40:08;3.75;;;1.08;;
21539;SDS011;10931;52.164;5.518;2022-10-19T23:42:57;1.15;;;0.90;;
21539;SDS011;10931;52.164;5.518;2022-10-19T23:45:36;1.77;;;0.90;;
21539;SDS011;10931;52.164;5.518;2022-10-19T23:48:04;0.85;;;0.80;;
21539;SDS011;10931;52.164;5.518;2022-10-19T23:50:30;0.77;;;0.70;;
21539;SDS011;10931;52.164;5.518;2022-10-19T23:53:05;2.00;;;0.80;;
21539;SDS011;10931;52.164;5.518;2022-10-19T23:55:31;1.20;;;0.88;;
21539;SDS011;10931;52.164;5.518;2022-10-19T23:58:18;1.15;;;0.82;;
